Mount Auburn, Iowa
Current Conditions -  °F | °C
As of 10:15 AM on Wednesday 26 Nov 2014 (Local Time) from KVTI Reporting Station
Clear Clear  
Wind Chill: 20°   Ceiling: Unl
Heat Index: 30°   Visibility: 10mi
Dew Point: 25°   Wind: 13mph
Humidity: 82%   Direction: 90°E
Pressure: 30.03"   Gusts: NA
Location:  42.25°N, 92.09°W
Report Text: KVTI 261615Z AUTO 09011KT 10SM CLR M01/M04 A3003 RMK AO2 T10101037
Loading
Personal Weather Stations






























Interactive Weather Map New forecast layout! Learn more

10-Day Weather Forecast

Advertisements
Track Severe Weather on mobile